Aviation Digital Data Service (ADDS)

Output produced by METARs form (0242 UTC 24 July 2017)
found at http://www.aviationweather.gov/adds/metars/
 
ENAT 240150Z VRB03KT CAVOK 11/08 Q1023 RMK WIND 700FT 17007KT
TAF ENAT 240200Z 2404/2412 VRB05KT CAVOK 
     BECMG 2409/2411 35010KT
       
ENAN 240220Z AUTO 00000KT 9999 NCD 11/10 Q1022
TAF ENAN 2400/2424 04005KT CAVOK 
     BECMG 2412/2415 BKN004 
     TEMPO 2414/2424 0500 FG VV001
       
ENML 240220Z AUTO VRB02KT 9999NDV OVC008/// 14/13 Q1012
ENNA 240220Z AUTO 00000KT 9999 NCD 11/09 Q1023 RMK WIND 1800FT 20003KT
TAF ENNA 2400/2424 VRB05KT 9999 FEW040 
     TEMPO 2411/2421 36010KT 
     PROB40 2418/2424 0400 FG VV002
       
ENDU 240220Z AUTO 00000KT 9999 NCD 07/07 Q1023 RMK WIND 1100FT VRB03KT WIND 2200FT 12006KT
TAF ENDU 2400/2424 VRB05KT 9999 FEW040
       
ENBS 232050Z VRB01KT CAVOK 12/08 Q1024
ENBR 240150Z 17006KT 9999 FEW050 SCT110 15/14 Q1012 RMK WIND 1200FT 18011KT
TAF ENBR 2400/2424 VRB05KT 9999 FEW020 BKN050 
     PROB30 
     TEMPO 2400/2406 4000 BR BKN004 
     PROB40 
     TEMPO 2406/2424 SHRA BKN007 SCT030CB
       
ENBO 240150Z 09011KT CAVOK 14/08 Q1021
TAF ENBO 2400/2424 09010KT CAVOK 
     BECMG 2410/2412 02008KT 
     BECMG 2420/2422 09010KT
       
ENBL 232050Z 36005KT 9999 BKN090 18/13 Q1013
ENBN 240220Z AUTO 04008KT 9999NDV NCD 15/07 Q1019
ENEV 240220Z AUTO 02003KT 9999 NCD 09/09 Q1022 RMK WIND 1400FT 07004KT
TAF ENEV 240200Z 2405/2412 VRB05KT CAVOK
       
ENFL 240220Z AUTO VRB01KT 9999NDV BKN082/// 15/14 Q1011
ENHD 240220Z AUTO 01004KT 9999 OVC076/// 15/14 Q1012
TAF ENHD 240200Z 2404/2412 VRB05KT 9999 FEW020TCU BKN050
       
ENKR 240220Z AUTO 09005KT 9999 OVC002/// 08/07 Q1024 RMK WIND 731FT 05005KT
TAF ENKR 240200Z 2403/2412 05006KT 8000 BR BKN004 
     PROB40 
     TEMPO 2403/2412 0400 FG VV002
       
ENCN 240220Z AUTO 06006KT 9999 BKN040/// BKN180/// 15/14 Q1012
TAF ENCN 240200Z 2405/2412 05008KT 9999 SCT030 BKN050 
     TEMPO 2405/2409 SHRA SCT030CB BKN040
       
ENKB 240220Z AUTO 05004KT 0050 R07/P2000N R25/0200N FG SCT000/// 12/12 Q1012 RMK WIND 745FT 13011KT
TAF ENKB 240200Z 2404/2412 VRB05KT 2000 BR BKN004 
     PROB40 2404/2408 0100 FG VV001 
     BECMG 2407/2409 9999 BKN020
       
ENOL 240150Z 12016KT CAVOK 16/09 Q1015
TAF ENOL 2400/2424 11015KT 9999 FEW030TCU SCT090
       
ENGM 240220Z 05005KT 020V100 9999 FEW035 BKN070 15/10 Q1015
TAF ENGM 2400/2424 08005KT 9999 FEW040TCU SCT050 
     PROB30 
     TEMPO 2406/2412 SHRA SCT030CB BKN040
       
ENRO 240220Z AUTO 16003KT 110V210 9999NDV OVC022/// 09/08 Q1018
TAF ENRO 240200Z 2405/2412 11012KT 9999 -SHRA FEW025TCU BKN030 
     TEMPO 2405/2409 SHRA BKN014 SCT025CB
       
ENRY 240220Z AUTO 09006KT 9999NDV -RA OVC084/// 17/12 Q1014
TAF ENRY 2400/2424 11008KT CAVOK
       
ENZV 240150Z 00000KT CAVOK 16/12 Q1012
TAF ENZV 2400/2424 VRB05KT 9999 SCT050 
     PROB40 
     TEMPO 2400/2418 SHRA BKN007 SCT030CB 
     BECMG 2406/2409 33010KT
       
ENTO 240220Z AUTO 04004KT 010V080 9999 OVC086/// 17/17 Q1014
TAF ENTO 2400/2424 08008KT CAVOK
       
ENTC 240150Z 03003KT CAVOK 09/08 Q1023 RMK WIND 2600FT 18004KT
TAF ENTC 2400/2424 03008KT CAVOK 
     PROB30 2421/2424 0400 FG VV002
       
ENVA 240150Z 09010KT CAVOK 15/08 Q1016 RMK WIND 670FT 10010KT
TAF ENVA 2400/2424 14010KT 9999 FEW040 
     TEMPO 2403/2412 16018G28KT
       
ENAL 240220Z AUTO 22003KT 5000 OVC002/// 13/13 Q1013
TAF ENAL 240200Z 2404/2412 VRB05KT 8000 BKN004 
     TEMPO 2404/2407 0100 FG BKN001 
     BECMG 2407/2409 BKN020